Time;durP1;ratioP1;P1;durP2;ratioP2;P2;SDS_P1;SDS_P2;PMS_P1;PMS_P2;Temp;Humidity;BMP_temperature;BMP_pressure;BME280_temperature;BME280_humidity;BME280_pressure;Samples;Min_cycle;Max_cycle;Signal;HPM_P1;HPM_P2
2021/06/26 00:01:26;;;;;;;5.27;3.50;;;;;;;16.56;59.04;101122.53;5070980;28;20282;-80
2021/06/26 00:03:53;;;;;;;6.30;3.47;;;;;;;16.55;59.72;101124.34;5068516;28;20198;-81
2021/06/26 00:06:19;;;;;;;5.50;3.07;;;;;;;16.57;60.23;101124.25;5071068;28;20207;-80
2021/06/26 00:08:46;;;;;;;3.70;3.40;;;;;;;16.57;60.81;101125.09;5074306;28;20260;-81
2021/06/26 00:11:13;;;;;;;4.20;3.43;;;;;;;16.56;60.74;101127.91;5077530;28;20623;-82
2021/06/26 00:13:39;;;;;;;4.23;3.40;;;;;;;16.54;60.98;101124.47;5070169;28;20211;-81
2021/06/26 00:16:07;;;;;;;4.17;3.23;;;;;;;16.52;61.30;101118.38;5080039;28;20222;-78
2021/06/26 00:18:34;;;;;;;6.07;3.50;;;;;;;16.50;61.50;101115.81;5067175;28;20232;-78
2021/06/26 00:21:00;;;;;;;3.73;3.30;;;;;;;16.47;61.59;101126.81;5075348;28;20203;-80
2021/06/26 00:23:27;;;;;;;5.47;3.60;;;;;;;16.43;61.77;101122.66;5072975;28;20206;-81
2021/06/26 00:25:53;;;;;;;5.30;3.10;;;;;;;16.41;61.80;101126.44;5079998;28;20938;-80
2021/06/26 00:28:20;;;;;;;4.53;3.70;;;;;;;16.38;61.62;101127.56;5078254;28;20212;-79
2021/06/26 00:30:46;;;;;;;3.20;2.90;;;;;;;16.36;61.99;101128.66;5067987;28;20211;-79
2021/06/26 00:33:15;;;;;;;3.90;2.97;;;;;;;16.36;61.98;101129.50;5076841;28;20615;-79
2021/06/26 00:35:41;;;;;;;5.73;3.57;;;;;;;16.35;62.18;101121.56;5072725;28;20228;-79
2021/06/26 00:38:08;;;;;;;4.67;3.00;;;;;;;16.34;62.37;101115.31;5086368;28;20206;-79
2021/06/26 00:40:34;;;;;;;4.53;3.30;;;;;;;16.38;62.93;101121.31;5074045;28;20210;-78
2021/06/26 00:43:01;;;;;;;5.40;3.37;;;;;;;16.40;62.76;101122.06;5077638;28;20202;-78
2021/06/26 00:45:28;;;;;;;3.27;2.97;;;;;;;16.39;63.01;101117.66;5070783;28;20200;-77
2021/06/26 00:47:54;;;;;;;4.10;2.97;;;;;;;16.38;62.95;101124.88;5071341;28;20288;-79
2021/06/26 00:50:24;;;;;;;3.60;3.30;;;;;;;16.37;63.16;101117.78;5078667;28;20305;-79
2021/06/26 00:52:52;;;;;;;5.63;3.77;;;;;;;16.38;63.40;101121.31;5063383;28;20209;-79
2021/06/26 00:55:19;;;;;;;4.00;3.10;;;;;;;16.37;62.99;101128.53;5070350;28;20290;-79
2021/06/26 00:57:49;;;;;;;5.17;2.90;;;;;;;16.33;62.53;101119.84;5072410;28;20206;-78
2021/06/26 01:00:16;;;;;;;3.23;2.93;;;;;;;16.29;62.19;101125.63;5066056;28;20232;-78
2021/06/26 01:02:43;;;;;;;4.47;3.03;;;;;;;16.24;62.63;101122.44;5077643;28;20202;-80
2021/06/26 01:05:11;;;;;;;5.07;3.10;;;;;;;16.24;62.77;101122.44;5071075;28;20221;-82
2021/06/26 01:07:40;;;;;;;3.00;2.57;;;;;;;16.24;62.68;101125.13;5075988;28;20281;-80
2021/06/26 01:10:08;;;;;;;6.33;2.60;;;;;;;16.22;62.11;101127.06;5070249;28;20222;-83
2021/06/26 01:12:35;;;;;;;2.90;2.20;;;;;;;16.18;61.67;101122.91;5077055;28;20866;-82
2021/06/26 01:15:02;;;;;;;2.83;2.33;;;;;;;16.17;61.65;101127.41;5071187;28;21515;-82
2021/06/26 01:17:28;;;;;;;3.53;2.53;;;;;;;16.16;61.44;101125.72;5068997;28;20202;-82
2021/06/26 01:19:55;;;;;;;3.13;2.83;;;;;;;16.16;61.53;101127.53;5074075;28;20594;-79
2021/06/26 01:22:22;;;;;;;3.37;2.50;;;;;;;16.17;61.18;101130.09;5067914;28;20285;-78
2021/06/26 01:24:51;;;;;;;3.20;2.73;;;;;;;16.20;61.06;101132.56;5072424;28;20810;-79
2021/06/26 01:27:18;;;;;;;2.83;2.43;;;;;;;16.21;61.03;101138.78;5069712;28;20206;-80
2021/06/26 01:29:49;;;;;;;2.60;2.40;;;;;;;16.22;61.30;101137.81;5073423;28;20230;-80
2021/06/26 01:32:16;;;;;;;3.50;2.40;;;;;;;16.23;61.23;101140.38;5071486;28;20201;-80
2021/06/26 01:34:43;;;;;;;4.13;2.77;;;;;;;16.25;61.19;101133.06;5083748;28;20220;-79
2021/06/26 01:37:10;;;;;;;4.40;2.63;;;;;;;16.27;61.05;101132.94;5072685;28;20249;-82
2021/06/26 01:39:36;;;;;;;4.13;2.60;;;;;;;16.26;60.25;101133.91;5075218;28;20598;-80
2021/06/26 01:42:05;;;;;;;4.23;2.53;;;;;;;16.25;60.37;101130.38;5077706;28;20199;-78
2021/06/26 01:44:31;;;;;;;3.63;2.87;;;;;;;16.26;60.34;101123.16;5074825;28;20213;-80
2021/06/26 01:46:58;;;;;;;6.43;2.80;;;;;;;16.25;60.51;101124.13;5077584;28;20216;-80
2021/06/26 01:49:25;;;;;;;7.03;3.03;;;;;;;16.27;61.24;101127.56;5078395;28;20231;-79
2021/06/26 01:51:52;;;;;;;4.07;2.80;;;;;;;16.26;61.34;101131.22;5091192;28;20198;-79
2021/06/26 01:54:19;;;;;;;2.53;2.33;;;;;;;16.25;61.87;101130.38;5080381;28;22328;-78
2021/06/26 01:56:46;;;;;;;3.80;2.73;;;;;;;16.24;61.87;101128.66;5084695;28;20288;-81
2021/06/26 01:59:14;;;;;;;7.67;3.03;;;;;;;16.23;62.13;101126.09;5081633;28;20277;-81
2021/06/26 02:01:40;;;;;;;8.23;2.90;;;;;;;16.23;62.97;101120.72;5072996;28;20302;-78
2021/06/26 02:04:07;;;;;;;3.37;3.00;;;;;;;16.24;62.52;101125.97;5084582;28;20203;-80
2021/06/26 02:06:33;;;;;;;3.97;3.00;;;;;;;16.23;62.31;101124.25;5076312;28;20213;-77
2021/06/26 02:09:00;;;;;;;4.27;2.70;;;;;;;16.21;62.28;101128.91;5088674;28;20221;-78
2021/06/26 02:11:26;;;;;;;5.43;3.10;;;;;;;16.21;62.26;101117.28;5077194;28;20211;-79
2021/06/26 02:13:53;;;;;;;4.30;3.47;;;;;;;16.21;62.42;101118.16;5092500;28;20280;-78
2021/06/26 02:16:21;;;;;;;5.03;2.87;;;;;;;16.22;62.41;101121.69;5080626;28;20229;-81
2021/06/26 02:18:47;;;;;;;4.97;2.80;;;;;;;16.21;62.28;101120.84;5076539;28;20223;-80
2021/06/26 02:21:14;;;;;;;3.10;2.60;;;;;;;16.19;61.91;101114.72;5078816;28;20306;-79
2021/06/26 02:23:40;;;;;;;3.17;2.77;;;;;;;16.17;62.01;101121.19;5076144;28;20202;-81
2021/06/26 02:26:07;;;;;;;3.63;2.77;;;;;;;16.16;61.77;101120.34;5086879;28;20197;-80
2021/06/26 02:28:34;;;;;;;3.60;2.90;;;;;;;16.15;61.74;101124.00;5074366;28;20240;-79
2021/06/26 02:31:00;;;;;;;3.50;2.73;;;;;;;16.14;61.48;101132.19;5086145;28;20243;-79
2021/06/26 02:33:28;;;;;;;4.27;2.70;;;;;;;16.12;61.39;101128.78;5079806;28;20216;-80
2021/06/26 02:35:55;;;;;;;3.50;2.50;;;;;;;16.11;61.14;101125.25;5073314;28;20230;-78
2021/06/26 02:38:21;;;;;;;3.70;2.43;;;;;;;16.11;60.90;101127.06;5077576;28;20202;-78
2021/06/26 02:40:48;;;;;;;3.50;2.30;;;;;;;16.10;61.09;101133.41;5074614;28;20206;-78
2021/06/26 02:43:14;;;;;;;3.80;2.80;;;;;;;16.09;61.09;101123.66;5085400;28;20208;-79
2021/06/26 02:45:41;;;;;;;4.10;3.13;;;;;;;16.09;61.41;101119.13;5079023;28;20205;-80
2021/06/26 02:48:08;;;;;;;3.90;2.77;;;;;;;16.11;61.50;101117.19;5081566;28;20198;-80
2021/06/26 02:50:36;;;;;;;4.50;2.77;;;;;;;16.13;61.89;101123.25;5087449;28;20212;-80
2021/06/26 02:53:02;;;;;;;3.73;3.37;;;;;;;16.15;62.08;101123.13;5077800;28;20277;-80
2021/06/26 02:55:29;;;;;;;3.83;2.90;;;;;;;16.14;62.30;101127.66;5075446;28;20239;-81
2021/06/26 02:57:57;;;;;;;5.20;3.07;;;;;;;16.15;62.20;101125.81;5084190;28;20212;-81
2021/06/26 03:00:24;;;;;;;3.73;3.00;;;;;;;16.14;62.81;101130.34;5076808;28;20221;-81
2021/06/26 03:02:51;;;;;;;3.53;2.90;;;;;;;16.13;63.34;101128.63;5074744;28;20202;-80
2021/06/26 03:05:17;;;;;;;4.07;3.10;;;;;;;16.13;63.68;101125.09;5086831;28;20638;-81
2021/06/26 03:07:50;;;;;;;4.70;3.17;;;;;;;16.11;64.41;101129.75;5082635;28;20211;-80
2021/06/26 03:10:17;;;;;;;6.87;3.53;;;;;;;16.11;64.58;101127.06;5076564;28;20225;-80
2021/06/26 03:12:43;;;;;;;5.63;2.70;;;;;;;16.09;65.09;101126.34;5087265;28;20204;-81
2021/06/26 03:15:11;;;;;;;7.10;3.20;;;;;;;16.08;65.09;101127.31;5079535;28;20206;-80
2021/06/26 03:17:38;;;;;;;4.17;2.80;;;;;;;16.05;64.96;101139.16;5082825;28;20226;-80
2021/06/26 03:20:07;;;;;;;3.97;2.97;;;;;;;16.01;64.78;101136.81;5098127;28;20298;-80
2021/06/26 03:22:33;;;;;;;6.03;3.23;;;;;;;15.95;64.84;101136.31;5079157;28;20201;-81
2021/06/26 03:25:01;;;;;;;6.50;2.90;;;;;;;15.90;65.00;101141.22;5071044;28;20707;-80
2021/06/26 03:27:28;;;;;;;4.47;2.70;;;;;;;15.87;64.63;101143.25;5072899;28;20200;-81
2021/06/26 03:29:55;;;;;;;4.07;2.83;;;;;;;15.84;64.70;101149.72;5072121;28;20275;-79
2021/06/26 03:32:21;;;;;;;4.10;2.73;;;;;;;15.83;64.72;101144.47;5075430;28;20196;-81
2021/06/26 03:34:48;;;;;;;4.63;2.90;;;;;;;15.81;64.96;101146.41;5080265;28;20209;-80
2021/06/26 03:37:14;;;;;;;3.73;3.10;;;;;;;15.81;64.58;101143.72;5072193;28;20692;-81
2021/06/26 03:39:41;;;;;;;3.70;2.77;;;;;;;15.79;64.68;101145.69;5074787;28;20229;-80
2021/06/26 03:42:09;;;;;;;5.67;2.93;;;;;;;15.77;64.86;101143.09;5073275;28;20213;-82
2021/06/26 03:44:36;;;;;;;4.63;3.10;;;;;;;15.76;64.80;101148.63;5073699;28;20262;-81
2021/06/26 03:47:03;;;;;;;5.70;2.80;;;;;;;15.74;64.97;101156.78;5071607;28;20219;-79
2021/06/26 03:49:33;;;;;;;5.17;3.27;;;;;;;15.74;64.93;101146.06;5078727;28;20228;-78
2021/06/26 03:52:00;;;;;;;3.50;3.20;;;;;;;15.74;64.92;101140.69;5070909;28;20202;-79
2021/06/26 03:54:27;;;;;;;4.07;3.40;;;;;;;15.74;65.13;101146.06;5075223;28;20220;-79
2021/06/26 03:56:54;;;;;;;3.73;3.33;;;;;;;15.75;65.27;101155.81;5075974;28;20246;-80
2021/06/26 03:59:22;;;;;;;3.50;3.13;;;;;;;15.76;65.82;101146.78;5071623;28;20307;-80
2021/06/26 04:01:48;;;;;;;3.83;3.43;;;;;;;15.77;65.56;101139.56;5074555;28;20211;-80
2021/06/26 04:04:15;;;;;;;3.93;3.53;;;;;;;15.79;65.63;101143.84;5074460;28;20669;-78
2021/06/26 04:06:41;;;;;;;4.00;3.33;;;;;;;15.79;65.57;101146.53;5067112;28;20201;-78
2021/06/26 04:09:08;;;;;;;3.53;3.23;;;;;;;15.81;65.85;101147.28;5069868;28;20590;-80
2021/06/26 04:11:34;;;;;;;4.77;3.63;;;;;;;15.81;65.64;101147.28;5074800;28;20205;-81
2021/06/26 04:14:01;;;;;;;4.53;3.47;;;;;;;15.84;65.26;101151.56;5068729;28;20198;-77
2021/06/26 04:16:29;;;;;;;3.13;2.83;;;;;;;15.85;65.55;101159.50;5078498;28;20236;-78
2021/06/26 04:18:56;;;;;;;4.37;3.60;;;;;;;15.85;65.24;101154.13;5088147;28;20637;-79
2021/06/26 04:21:23;;;;;;;4.13;3.50;;;;;;;15.88;65.00;101163.78;5079355;28;20206;-78
2021/06/26 04:23:49;;;;;;;3.90;3.33;;;;;;;15.89;65.10;101169.03;5083867;28;20205;-79
2021/06/26 04:26:16;;;;;;;3.60;3.30;;;;;;;15.94;65.37;101166.84;5081302;28;20214;-80
2021/06/26 04:28:43;;;;;;;4.13;3.73;;;;;;;15.99;65.50;101171.84;5081223;28;20225;-79
2021/06/26 04:31:09;;;;;;;5.40;3.63;;;;;;;16.01;65.19;101169.06;5083615;28;20647;-80
2021/06/26 04:33:37;;;;;;;6.10;3.40;;;;;;;16.04;65.24;101171.50;5076791;28;20234;-78
2021/06/26 04:36:05;;;;;;;3.80;3.50;;;;;;;16.05;65.05;101171.38;5080340;28;20239;-79
2021/06/26 04:38:31;;;;;;;4.20;3.40;;;;;;;16.09;64.88;101177.38;5070019;28;20230;-79
2021/06/26 04:40:58;;;;;;;5.03;3.43;;;;;;;16.12;64.67;101177.16;5084190;28;20563;-79
2021/06/26 04:43:24;;;;;;;6.53;3.20;;;;;;;16.12;64.44;101185.22;5070877;28;20206;-78
2021/06/26 04:45:51;;;;;;;4.97;3.43;;;;;;;16.14;64.07;101178.72;5082772;28;20200;-80
2021/06/26 04:48:19;;;;;;;3.47;3.17;;;;;;;16.16;64.04;101176.75;5085336;28;20202;-79
2021/06/26 04:50:48;;;;;;;3.77;3.47;;;;;;;16.20;64.23;101177.38;5069694;28;20202;-79
2021/06/26 04:53:15;;;;;;;4.77;3.70;;;;;;;16.24;64.14;101181.56;5072996;28;20200;-79
2021/06/26 04:55:41;;;;;;;5.20;3.60;;;;;;;16.28;63.93;101178.50;5067308;28;20563;-80
2021/06/26 04:58:08;;;;;;;4.80;3.27;;;;;;;16.33;63.95;101186.19;5074275;28;20684;-82
2021/06/26 05:00:34;;;;;;;3.97;3.50;;;;;;;16.35;64.01;101186.94;5068883;28;20209;-82
2021/06/26 05:03:01;;;;;;;4.03;3.40;;;;;;;16.40;64.21;101186.56;5080362;28;20553;-81
2021/06/26 05:05:27;;;;;;;4.27;3.70;;;;;;;16.43;64.63;101187.19;5074436;28;20617;-82
2021/06/26 05:07:55;;;;;;;4.83;3.40;;;;;;;16.49;64.39;101186.69;5076418;28;20202;-82
2021/06/26 05:10:22;;;;;;;4.07;3.67;;;;;;;16.54;64.82;101181.81;5076513;28;20222;-79
2021/06/26 05:12:48;;;;;;;5.30;4.30;;;;;;;16.60;65.36;101178.63;5069405;28;20210;-80
2021/06/26 05:15:16;;;;;;;4.50;3.80;;;;;;;16.68;65.55;101186.09;5078765;28;20293;-80
2021/06/26 05:17:42;;;;;;;6.27;4.00;;;;;;;16.74;65.72;101174.00;5068480;28;20603;-80
2021/06/26 05:20:14;;;;;;;4.63;3.83;;;;;;;16.79;65.97;101177.19;5080367;28;20232;-80
2021/06/26 05:22:40;;;;;;;4.87;4.20;;;;;;;16.82;65.92;101176.94;5065013;28;20203;-80
2021/06/26 05:25:10;;;;;;;4.37;3.97;;;;;;;16.85;66.18;101171.28;5071648;28;20208;-78
2021/06/26 05:27:36;;;;;;;5.10;3.60;;;;;;;16.90;66.34;101182.53;5077554;28;20207;-80
2021/06/26 05:30:03;;;;;;;4.13;3.70;;;;;;;16.94;66.37;101181.31;5072933;28;20577;-79
2021/06/26 05:32:30;;;;;;;3.87;3.57;;;;;;;17.00;66.73;101180.81;5082376;28;20203;-80
2021/06/26 05:34:59;;;;;;;5.27;3.70;;;;;;;17.06;67.09;101185.69;5072362;28;20225;-79
2021/06/26 05:37:25;;;;;;;4.37;3.90;;;;;;;17.14;67.50;101180.53;5076426;28;20257;-80
2021/06/26 05:39:52;;;;;;;4.73;4.33;;;;;;;17.22;67.76;101186.13;5081046;28;20673;-81
2021/06/26 05:42:20;;;;;;;4.60;4.17;;;;;;;17.29;68.26;101189.19;5079981;28;20206;-81
2021/06/26 05:44:46;;;;;;;4.70;4.23;;;;;;;17.35;68.64;101186.00;5079977;28;20299;-82
2021/06/26 05:47:13;;;;;;;5.60;4.37;;;;;;;17.43;68.89;101190.72;5071630;28;20669;-82
2021/06/26 05:49:40;;;;;;;5.83;4.17;;;;;;;17.49;69.02;101187.53;5073364;28;20707;-82
2021/06/26 05:52:07;;;;;;;5.07;3.80;;;;;;;17.54;69.25;101186.16;5074663;28;20290;-80
2021/06/26 05:54:34;;;;;;;4.57;4.17;;;;;;;17.60;69.21;101185.63;5075691;28;20303;-80
2021/06/26 05:57:02;;;;;;;4.73;4.03;;;;;;;17.66;69.37;101187.84;5078794;28;20224;-79
2021/06/26 05:59:29;;;;;;;6.03;4.53;;;;;;;17.73;69.55;101190.03;5076368;28;20219;-80
2021/06/26 06:01:56;;;;;;;4.73;4.33;;;;;;;17.80;69.36;101188.50;5080207;28;20200;-79
2021/06/26 06:04:23;;;;;;;7.17;4.37;;;;;;;17.87;68.93;101192.41;5081959;28;20247;-80
2021/06/26 06:06:49;;;;;;;5.00;4.30;;;;;;;17.93;68.18;101187.31;5077725;28;20841;-78
2021/06/26 06:09:17;;;;;;;5.03;4.37;;;;;;;17.98;67.47;101182.41;5073144;28;20309;-79
2021/06/26 06:11:46;;;;;;;5.87;4.83;;;;;;;18.04;67.07;101187.28;5078823;28;20215;-80
2021/06/26 06:14:12;;;;;;;4.70;4.20;;;;;;;18.12;66.73;101178.50;5070241;28;20204;-79
2021/06/26 06:16:41;;;;;;;4.90;4.33;;;;;;;18.21;66.30;101188.50;5073920;28;20226;-80
2021/06/26 06:19:08;;;;;;;4.77;4.27;;;;;;;18.32;66.04;101187.56;5075812;28;20254;-77
2021/06/26 06:21:34;;;;;;;6.03;5.23;;;;;;;18.44;65.95;101185.66;5074305;28;20222;-79
2021/06/26 06:24:01;;;;;;;4.80;4.40;;;;;;;18.58;65.47;101191.53;5078226;28;20212;-79
2021/06/26 06:26:27;;;;;;;5.10;4.50;;;;;;;18.71;65.12;101194.88;5074474;28;20207;-80
2021/06/26 06:28:54;;;;;;;4.97;4.07;;;;;;;18.84;64.48;101199.16;5074981;28;20227;-80
2021/06/26 06:31:20;;;;;;;5.37;4.50;;;;;;;18.92;63.90;101200.22;5078159;28;20273;-78
2021/06/26 06:33:48;;;;;;;5.87;5.27;;;;;;;19.00;64.09;101199.50;5077450;28;20676;-79
2021/06/26 06:36:15;;;;;;;6.10;4.53;;;;;;;19.07;64.20;101203.38;5072834;28;20731;-84
2021/06/26 06:38:41;;;;;;;4.50;4.03;;;;;;;19.15;64.09;101206.25;5070170;28;20233;-83
2021/06/26 06:41:08;;;;;;;4.80;4.23;;;;;;;19.25;64.24;101215.19;5072005;28;20232;-83
2021/06/26 06:43:35;;;;;;;5.20;4.63;;;;;;;19.35;64.53;101218.75;5070687;28;20205;-84
2021/06/26 06:46:03;;;;;;;5.17;4.77;;;;;;;19.47;64.54;101219.50;5074852;28;20199;-81
2021/06/26 06:48:30;;;;;;;5.90;5.30;;;;;;;19.56;64.55;101223.22;5072514;28;20226;-79
2021/06/26 06:50:58;;;;;;;6.20;5.60;;;;;;;19.65;64.80;101222.41;5069991;28;20199;-82
2021/06/26 06:53:25;;;;;;;7.83;5.77;;;;;;;19.73;64.67;101227.94;5068290;28;20258;-82
2021/06/26 06:55:51;;;;;;;7.10;6.40;;;;;;;19.81;64.07;101229.94;5070690;28;20212;-82
2021/06/26 06:58:19;;;;;;;7.87;7.00;;;;;;;19.85;62.74;101228.66;5071321;28;20311;-81
2021/06/26 07:00:46;;;;;;;8.23;7.27;;;;;;;19.83;61.68;101226.09;5069620;28;20210;-82
2021/06/26 07:03:13;;;;;;;9.43;7.40;;;;;;;19.82;61.06;101221.69;5075265;28;20572;-81
2021/06/26 07:05:39;;;;;;;9.27;7.17;;;;;;;19.86;61.06;101219.56;5074053;28;20204;-80
2021/06/26 07:08:07;;;;;;;10.17;7.60;;;;;;;19.97;60.83;101222.94;5071478;28;20202;-80
2021/06/26 07:10:34;;;;;;;8.17;7.37;;;;;;;20.05;60.37;101225.81;5071962;28;20204;-80
2021/06/26 07:13:01;;;;;;;7.73;6.93;;;;;;;20.15;59.77;101222.22;5070518;28;20263;-80
2021/06/26 07:15:28;;;;;;;9.27;7.77;;;;;;;20.26;59.38;101227.44;5074204;28;20216;-79
2021/06/26 07:17:54;;;;;;;8.27;7.50;;;;;;;20.36;58.99;101223.78;5069082;28;20599;-79
2021/06/26 07:20:21;;;;;;;7.30;6.63;;;;;;;20.47;58.50;101221.88;5068188;28;20222;-79
2021/06/26 07:22:48;;;;;;;7.60;6.27;;;;;;;20.58;58.15;101216.31;5068628;28;20207;-80
2021/06/26 07:25:16;;;;;;;7.27;6.60;;;;;;;20.69;57.92;101225.09;5065132;28;20214;-81
2021/06/26 07:27:42;;;;;;;7.90;7.17;;;;;;;20.77;57.40;101214.38;5070668;28;20202;-80
2021/06/26 07:30:10;;;;;;;6.97;6.37;;;;;;;20.87;57.07;101225.16;5065763;28;20222;-79
2021/06/26 07:32:36;;;;;;;6.27;5.70;;;;;;;20.94;56.42;101223.56;5070399;28;20211;-80
2021/06/26 07:35:03;;;;;;;6.90;6.20;;;;;;;21.01;55.95;101223.78;5064681;28;20207;-80
2021/06/26 07:37:29;;;;;;;6.10;5.60;;;;;;;21.07;55.53;101226.75;5068474;28;20603;-80
2021/06/26 07:39:56;;;;;;;6.00;5.40;;;;;;;21.12;55.34;101232.59;5070939;28;20228;-78
2021/06/26 07:42:24;;;;;;;7.10;5.30;;;;;;;21.21;54.37;101224.56;5068352;28;20747;-80
2021/06/26 07:44:50;;;;;;;7.10;5.30;;;;;;;21.26;53.05;101222.25;5070850;28;20208;-80
2021/06/26 07:47:17;;;;;;;6.97;5.37;;;;;;;21.31;51.67;101218.09;5071169;28;20745;-80
2021/06/26 07:49:43;;;;;;;6.40;5.73;;;;;;;21.36;50.61;101215.75;5069425;28;20700;-80
2021/06/26 07:52:10;;;;;;;6.70;6.10;;;;;;;21.43;50.68;101208.75;5071664;28;20198;-79
2021/06/26 07:54:36;;;;;;;7.20;6.50;;;;;;;21.62;52.10;101223.16;5068938;28;20326;-80
2021/06/26 07:57:03;;;;;;;7.13;6.22;;;;;;;21.80;52.64;101218.56;5070664;28;20208;-78
2021/06/26 07:59:31;;;;;;;6.45;5.93;;;;;;;21.96;52.08;101216.00;5072265;28;20304;-77
2021/06/26 08:01:58;;;;;;;7.00;6.40;;;;;;;22.07;51.62;101207.63;5066648;28;20205;-80
2021/06/26 08:04:24;;;;;;;6.30;5.78;;;;;;;22.19;50.75;101208.25;5062985;28;20209;-79
2021/06/26 08:06:51;;;;;;;10.38;5.40;;;;;;;22.29;50.87;101217.13;5071827;28;20234;-80
2021/06/26 08:09:18;;;;;;;6.22;5.70;;;;;;;22.39;49.65;101203.47;5069800;28;20748;-79
2021/06/26 08:11:44;;;;;;;6.00;5.32;;;;;;;22.46;48.95;101207.22;5065334;28;20219;-80
2021/06/26 08:14:11;;;;;;;6.20;5.60;;;;;;;22.56;48.82;101205.25;5061244;28;20201;-80
2021/06/26 08:16:39;;;;;;;6.43;5.30;;;;;;;22.67;47.88;101204.97;5066211;28;20197;-80
2021/06/26 08:19:05;;;;;;;5.38;4.88;;;;;;;22.75;46.68;101199.56;5067393;28;20315;-80
2021/06/26 08:21:32;;;;;;;6.15;5.10;;;;;;;22.80;45.35;101213.53;5071004;28;20666;-80
2021/06/26 08:23:58;;;;;;;5.40;4.90;;;;;;;22.83;44.90;101205.06;5070851;28;20211;-79
2021/06/26 08:26:25;;;;;;;5.40;4.90;;;;;;;22.94;45.07;101208.50;5061941;28;20219;-79
2021/06/26 08:28:51;;;;;;;5.72;4.70;;;;;;;23.05;44.03;101211.78;5064874;28;20220;-80
2021/06/26 08:31:18;;;;;;;5.50;4.72;;;;;;;23.12;42.89;101204.66;5062880;28;20223;-80
2021/06/26 08:33:46;;;;;;;5.25;4.75;;;;;;;23.17;42.42;101206.88;5068361;28;20204;-80
2021/06/26 08:36:12;;;;;;;4.93;4.50;;;;;;;23.20;41.46;101206.56;5062243;28;20200;-80
2021/06/26 08:38:39;;;;;;;7.18;5.10;;;;;;;23.20;40.60;101198.41;5062112;28;20238;-79
2021/06/26 08:41:07;;;;;;;4.70;3.90;;;;;;;23.24;40.06;101204.38;5068893;28;20204;-78
2021/06/26 08:43:34;;;;;;;5.05;4.55;;;;;;;23.32;39.80;101198.94;5069489;28;20264;-79
2021/06/26 08:46:01;;;;;;;5.53;4.63;;;;;;;23.41;38.89;101197.97;5069235;28;20207;-77
2021/06/26 08:48:28;;;;;;;5.40;4.78;;;;;;;23.50;38.17;101197.78;5062208;28;20358;-77
2021/06/26 08:50:57;;;;;;;5.38;4.88;;;;;;;23.63;39.16;101199.22;5073356;28;20283;-79
2021/06/26 08:53:23;;;;;;;4.78;4.28;;;;;;;23.74;39.40;101205.16;5074145;28;20223;-80
2021/06/26 08:55:52;;;;;;;5.43;4.30;;;;;;;23.86;39.16;101203.81;5077263;28;20686;-79
2021/06/26 08:58:20;;;;;;;4.70;4.30;;;;;;;23.91;38.80;101199.72;5079206;28;20777;-79
2021/06/26 09:00:47;;;;;;;5.35;4.25;;;;;;;23.95;38.88;101196.50;5069306;28;20215;-80
2021/06/26 09:03:15;;;;;;;4.80;4.07;;;;;;;24.04;39.31;101200.91;5073870;28;20223;-79
2021/06/26 09:05:43;;;;;;;5.30;4.80;;;;;;;24.14;38.85;101196.16;5066735;28;20211;-79
2021/06/26 09:08:13;;;;;;;5.70;4.32;;;;;;;24.21;39.55;101197.13;5077056;28;20197;-79
2021/06/26 09:10:42;;;;;;;4.90;4.13;;;;;;;24.34;39.45;101195.81;5075489;28;20566;-79
2021/06/26 09:13:13;;;;;;;5.22;4.72;;;;;;;24.36;38.25;101193.78;5066814;28;20559;-79
2021/06/26 09:15:40;;;;;;;4.72;4.10;;;;;;;24.36;37.72;101202.78;5056204;28;20254;-79
2021/06/26 09:18:17;;;;;;;5.82;4.40;;;;;;;24.37;36.96;101199.00;5076686;28;20225;-79
2021/06/26 09:20:48;;;;;;;6.05;4.68;;;;;;;24.36;35.76;101201.94;5077084;28;20604;-79
2021/06/26 09:23:22;;;;;;;4.82;3.70;;;;;;;24.39;35.18;101198.84;5077697;28;20189;-79
2021/06/26 09:25:49;;;;;;;4.97;3.70;;;;;;;24.44;34.36;101196.44;5077951;28;20610;-80
2021/06/26 09:28:25;;;;;;;7.28;4.00;;;;;;;24.53;34.60;101198.16;5085876;28;20193;-79
2021/06/26 09:30:53;;;;;;;4.28;3.63;;;;;;;24.64;34.71;101188.75;5077191;28;20193;-80
2021/06/26 09:33:23;;;;;;;4.70;3.72;;;;;;;24.77;34.43;101199.91;5076691;28;20216;-79
2021/06/26 09:36:01;;;;;;;5.95;3.70;;;;;;;24.89;34.55;101196.66;5077209;28;20238;-80
2021/06/26 09:38:33;;;;;;;4.28;3.88;;;;;;;25.00;34.28;101183.69;5077166;28;20565;-79
2021/06/26 09:41:12;;;;;;;5.07;3.80;;;;;;;25.04;33.98;101182.31;5077723;28;20185;-80
2021/06/26 09:43:38;;;;;;;4.13;3.65;;;;;;;25.13;34.55;101192.97;5077175;28;20224;-80
2021/06/26 09:46:07;;;;;;;4.22;3.83;;;;;;;25.25;35.01;101190.72;5076740;28;20203;-80
2021/06/26 09:48:34;;;;;;;4.30;3.90;;;;;;;25.28;34.97;101195.78;5075833;28;20221;-80
2021/06/26 09:51:00;;;;;;;5.00;3.75;;;;;;;25.33;35.47;101190.66;5076850;28;20666;-79
2021/06/26 09:53:28;;;;;;;5.18;4.03;;;;;;;25.41;35.19;101185.16;5076255;28;20227;-79
2021/06/26 09:55:56;;;;;;;4.22;3.92;;;;;;;25.54;35.10;101190.00;5076280;28;20209;-79
2021/06/26 09:58:23;;;;;;;4.00;3.45;;;;;;;25.68;35.12;101191.13;5076436;28;20232;-79
2021/06/26 10:00:49;;;;;;;4.45;4.05;;;;;;;25.78;34.58;101183.56;5077267;28;20226;-79
2021/06/26 10:03:17;;;;;;;3.88;3.47;;;;;;;25.82;34.46;101177.53;5076767;28;20568;-79
2021/06/26 10:05:45;;;;;;;4.72;4.30;;;;;;;25.84;31.78;101180.06;5069009;28;20217;-78
2021/06/26 10:08:14;;;;;;;4.10;3.65;;;;;;;25.78;30.39;101178.09;5056747;28;20201;-79
2021/06/26 10:10:40;;;;;;;5.25;4.25;;;;;;;25.81;30.66;101174.97;5055917;28;20668;-80
2021/06/26 10:13:12;;;;;;;4.30;3.90;;;;;;;25.85;30.60;101177.16;5055854;28;20224;-79
2021/06/26 10:15:39;;;;;;;4.38;3.50;;;;;;;25.94;31.37;101175.22;5056482;28;20193;-79
2021/06/26 10:18:06;;;;;;;3.65;3.25;;;;;;;26.12;31.70;101172.16;5056442;28;20229;-80
2021/06/26 10:20:37;;;;;;;3.80;3.42;;;;;;;26.23;31.79;101168.94;5056113;28;20607;-80
2021/06/26 10:23:04;;;;;;;4.32;3.88;;;;;;;26.37;31.98;101170.03;5056546;28;20556;-80
2021/06/26 10:25:31;;;;;;;5.60;3.97;;;;;;;26.45;31.35;101161.75;5056006;28;20205;-80
2021/06/26 10:28:02;;;;;;;4.88;3.80;;;;;;;26.50;31.74;101162.91;5055548;28;20259;-80
2021/06/26 10:30:31;;;;;;;4.40;4.00;;;;;;;26.59;31.66;101164.47;5056049;28;20877;-79
2021/06/26 10:33:00;;;;;;;6.00;4.68;;;;;;;26.66;30.97;101166.47;5056089;28;20205;-79
2021/06/26 10:35:28;;;;;;;4.40;3.53;;;;;;;26.70;30.68;101163.13;5067771;28;20710;-79
2021/06/26 10:38:06;;;;;;;4.07;3.67;;;;;;;26.74;30.69;101161.72;5075833;28;20201;-78
2021/06/26 10:40:40;;;;;;;3.50;3.20;;;;;;;26.79;30.61;101162.00;5075642;28;20243;-79
2021/06/26 10:43:14;;;;;;;4.00;3.60;;;;;;;26.92;30.72;101166.78;5075499;28;20188;-79
2021/06/26 10:45:42;;;;;;;3.72;3.42;;;;;;;26.97;30.40;101167.09;5076582;28;20214;-78
2021/06/26 10:48:15;;;;;;;4.65;4.10;;;;;;;27.05;29.81;101168.91;5080723;28;20196;-77
2021/06/26 10:50:46;;;;;;;3.60;3.30;;;;;;;27.15;29.60;101167.53;5062307;28;20197;-75
2021/06/26 10:53:24;;;;;;;3.95;3.40;;;;;;;27.24;29.54;101162.78;5065532;28;20198;-75
2021/06/26 10:55:59;;;;;;;3.47;3.17;;;;;;;27.33;29.61;101155.31;5070542;28;20260;-75
2021/06/26 10:58:30;;;;;;;3.33;3.03;;;;;;;27.47;29.95;101166.19;5069866;28;20208;-76
2021/06/26 11:00:59;;;;;;;4.65;3.28;;;;;;;27.61;29.92;101164.47;5068512;28;20403;-77
2021/06/26 11:03:30;;;;;;;3.03;2.72;;;;;;;27.76;29.90;101162.53;5065373;28;20216;-76
2021/06/26 11:05:59;;;;;;;6.15;3.55;;;;;;;27.92;29.51;101153.19;5069408;28;20207;-77
2021/06/26 11:08:26;;;;;;;3.20;2.90;;;;;;;28.10;29.43;101153.53;5070440;28;20223;-77
2021/06/26 11:10:57;;;;;;;3.20;2.90;;;;;;;28.22;28.74;101157.44;5065196;28;20547;-77
2021/06/26 11:13:27;;;;;;;3.60;3.13;;;;;;;28.26;28.93;101156.00;5072481;28;20742;-75
2021/06/26 11:15:55;;;;;;;3.72;3.22;;;;;;;28.24;29.03;101152.59;5063618;28;20655;-75
2021/06/26 11:18:23;;;;;;;3.58;3.17;;;;;;;28.24;29.12;101154.50;5068154;28;20229;-77
2021/06/26 11:20:49;;;;;;;3.67;2.70;;;;;;;28.26;29.08;101164.22;5068564;28;20304;-76
2021/06/26 11:23:17;;;;;;;2.78;2.58;;;;;;;28.33;28.82;101153.28;5072829;28;20204;-77
2021/06/26 11:25:46;;;;;;;3.33;3.13;;;;;;;28.40;28.94;101148.69;5063353;28;20292;-76